Time;durP1;ratioP1;P1;durP2;ratioP2;P2;SDS_P1;SDS_P2;PMS_P1;PMS_P2;Temp;Humidity;BMP_temperature;BMP_pressure;BME280_temperature;BME280_humidity;BME280_pressure;Samples;Min_cycle;Max_cycle;Signal;HPM_P1;HPM_P2
2021/06/12 00:01:42;;;;;;;9.00;8.00;;;;;;;;;;5135747;27;20437;-71
2021/06/12 00:04:08;;;;;;;10.03;8.97;;;;;;;;;;5135144;27;20444;-71
2021/06/12 00:06:35;;;;;;;9.83;9.00;;;;;;;;;;5135637;27;20435;-72
2021/06/12 00:09:02;;;;;;;8.33;7.70;;;;;;;;;;5135077;27;20546;-72
2021/06/12 00:11:30;;;;;;;7.97;7.13;;;;;;;;;;5135540;27;20435;-71
2021/06/12 00:13:57;;;;;;;9.00;8.10;;;;;;;;;;5135247;27;20820;-72
2021/06/12 00:16:23;;;;;;;9.03;8.23;;;;;;;;;;5135375;27;20529;-72
2021/06/12 00:18:50;;;;;;;9.20;8.07;;;;;;;;;;5134862;27;20927;-72
2021/06/12 00:21:17;;;;;;;9.17;7.70;;;;;;;;;;5135976;27;20439;-72
2021/06/12 00:23:43;;;;;;;9.30;8.30;;;;;;;;;;5135096;27;20442;-72
2021/06/12 00:26:10;;;;;;;9.73;8.80;;;;;;;;;;5135106;27;20515;-71
2021/06/12 00:28:38;;;;;;;8.83;8.10;;;;;;;;;;5135413;27;20462;-71
2021/06/12 00:31:05;;;;;;;9.30;8.40;;;;;;;;;;5134897;27;20808;-71
2021/06/12 00:33:32;;;;;;;9.60;8.53;;;;;;;;;;5134633;27;20471;-71
2021/06/12 00:35:59;;;;;;;12.40;9.47;;;;;;;;;;5135364;27;20915;-71
2021/06/12 00:38:25;;;;;;;11.70;8.53;;;;;;;;;;5135113;27;20447;-71
2021/06/12 00:40:52;;;;;;;11.40;10.30;;;;;;;;;;5134550;27;20467;-71
2021/06/12 00:43:19;;;;;;;11.93;10.73;;;;;;;;;;5135676;27;20529;-72
2021/06/12 00:45:47;;;;;;;11.23;10.10;;;;;;;;;;5134851;27;20530;-71
2021/06/12 00:48:14;;;;;;;10.23;8.83;;;;;;;;;;5134832;27;20521;-71
2021/06/12 00:50:42;;;;;;;13.40;11.30;;;;;;;;;;5134421;27;20440;-71
2021/06/12 00:53:09;;;;;;;14.17;10.43;;;;;;;;;;5134684;27;20482;-71
2021/06/12 00:55:36;;;;;;;11.50;10.30;;;;;;;;;;5134676;27;20434;-71
2021/06/12 00:58:03;;;;;;;14.93;10.60;;;;;;;;;;5134728;27;20437;-71
2021/06/12 01:00:30;;;;;;;12.13;10.90;;;;;;;;;;5134289;27;20933;-70
2021/06/12 01:02:58;;;;;;;13.47;10.90;;;;;;;;;;5134196;27;20538;-71
2021/06/12 01:05:25;;;;;;;11.93;10.70;;;;;;;;;;5134267;27;20436;-71
2021/06/12 01:07:52;;;;;;;11.90;10.77;;;;;;;;;;5134114;28;20934;-70
2021/06/12 01:10:19;;;;;;;13.37;10.73;;;;;;;;;;5134237;28;20463;-71
2021/06/12 01:12:53;;;;;;;12.10;10.70;;;;;;;;;;5135037;28;20438;-70
2021/06/12 01:15:20;;;;;;;11.70;10.50;;;;;;;;;;5134191;28;20966;-71
2021/06/12 01:17:51;;;;;;;13.77;12.37;;;;;;;;;;5134172;28;20484;-71
2021/06/12 01:20:37;;;;;;;15.50;13.90;;;;;;;;;;5134618;28;20422;-71
2021/06/12 01:23:12;;;;;;;13.77;12.27;;;;;;;;;;5135130;28;20426;-72
2021/06/12 01:25:50;;;;;;;13.97;12.57;;;;;;;;;;5134868;28;20509;-71
2021/06/12 01:28:29;;;;;;;15.67;12.57;;;;;;;;;;5134076;27;20471;-71
2021/06/12 01:30:57;;;;;;;14.27;12.07;;;;;;;;;;5134461;28;20430;-71
2021/06/12 01:33:24;;;;;;;17.83;12.90;;;;;;;;;;5133907;28;20438;-72
2021/06/12 01:35:53;;;;;;;16.37;12.43;;;;;;;;;;5134287;28;20558;-71
2021/06/12 01:38:20;;;;;;;16.97;13.27;;;;;;;;;;5134048;28;20453;-70
2021/06/12 01:40:48;;;;;;;14.63;12.53;;;;;;;;;;5133916;28;20438;-72
2021/06/12 01:43:15;;;;;;;17.47;12.10;;;;;;;;;;5135096;27;20431;-71
2021/06/12 01:45:42;;;;;;;17.67;12.77;;;;;;;;;;5138238;27;20443;-71
2021/06/12 01:48:11;;;;;;;16.70;14.40;;;;;;;;;;5138159;27;20440;-71
2021/06/12 01:50:38;;;;;;;14.77;12.20;;;;;;;;;;5138153;27;20437;-71
2021/06/12 01:53:05;;;;;;;17.30;14.33;;;;;;;;;;5137821;27;20438;-71
2021/06/12 01:55:33;;;;;;;19.23;15.17;;;;;;;;;;5138554;27;20441;-71
2021/06/12 01:58:01;;;;;;;18.37;15.10;;;;;;;;;;5137678;27;20582;-71
2021/06/12 02:00:28;;;;;;;19.00;14.47;;;;;;;;;;5138165;27;20510;-71
2021/06/12 02:02:55;;;;;;;19.93;14.90;;;;;;;;;;5137916;27;20437;-71
2021/06/12 02:05:24;;;;;;;16.40;13.57;;;;;;;;;;5137981;27;20444;-71
2021/06/12 02:07:51;;;;;;;17.17;14.70;;;;;;;;;;5138040;27;20486;-71
2021/06/12 02:10:19;;;;;;;21.23;15.60;;;;;;;;;;5137823;27;20530;-72
2021/06/12 02:12:45;;;;;;;21.87;16.33;;;;;;;;;;5137467;27;20434;-71
2021/06/12 02:15:13;;;;;;;25.70;15.60;;;;;;;;;;5137677;27;20473;-71
2021/06/12 02:17:40;;;;;;;19.30;15.70;;;;;;;;;;5138055;27;20439;-71
2021/06/12 02:20:08;;;;;;;20.10;15.57;;;;;;;;;;5137653;27;20490;-71
2021/06/12 02:22:37;;;;;;;21.07;16.33;;;;;;;;;;5137521;27;20821;-70
2021/06/12 02:25:07;;;;;;;19.93;15.77;;;;;;;;;;5137796;27;20483;-70
2021/06/12 02:27:34;;;;;;;23.63;14.77;;;;;;;;;;5137292;27;21052;-71
2021/06/12 02:30:01;;;;;;;20.67;15.53;;;;;;;;;;5137449;27;20957;-70
2021/06/12 02:32:28;;;;;;;21.90;16.23;;;;;;;;;;5137395;27;20433;-71
2021/06/12 02:34:55;;;;;;;19.17;16.80;;;;;;;;;;5137203;27;20478;-70
2021/06/12 02:37:21;;;;;;;21.30;16.70;;;;;;;;;;5137255;27;20438;-70
2021/06/12 02:39:49;;;;;;;20.57;15.73;;;;;;;;;;5137424;27;20980;-70
2021/06/12 02:42:16;;;;;;;20.23;16.30;;;;;;;;;;5136862;27;20456;-70
2021/06/12 02:44:43;;;;;;;23.23;17.47;;;;;;;;;;5137435;27;20803;-70
2021/06/12 02:47:10;;;;;;;23.77;16.80;;;;;;;;;;5137115;27;20498;-70
2021/06/12 02:49:38;;;;;;;24.10;17.20;;;;;;;;;;5137023;27;20442;-71
2021/06/12 02:52:06;;;;;;;22.57;17.40;;;;;;;;;;5136992;27;20442;-70
2021/06/12 02:54:33;;;;;;;24.20;17.50;;;;;;;;;;5135569;27;20474;-70
2021/06/12 02:57:01;;;;;;;24.17;18.50;;;;;;;;;;5136933;27;20524;-70
2021/06/12 02:59:30;;;;;;;23.50;17.07;;;;;;;;;;5136880;27;20791;-70
2021/06/12 03:01:58;;;;;;;23.17;18.40;;;;;;;;;;5136498;27;20946;-70
2021/06/12 03:04:25;;;;;;;24.97;17.90;;;;;;;;;;5136571;27;20442;-71
2021/06/12 03:06:53;;;;;;;23.77;19.40;;;;;;;;;;5136495;27;20443;-71
2021/06/12 03:09:20;;;;;;;24.27;17.60;;;;;;;;;;5136093;27;20442;-70
2021/06/12 03:11:47;;;;;;;28.70;17.00;;;;;;;;;;5136072;27;20451;-71
2021/06/12 03:14:16;;;;;;;26.43;19.00;;;;;;;;;;5136244;27;20480;-71
2021/06/12 03:16:44;;;;;;;24.13;17.90;;;;;;;;;;5136263;27;20482;-71
2021/06/12 03:19:11;;;;;;;29.97;18.53;;;;;;;;;;5136277;27;20449;-71
2021/06/12 03:21:38;;;;;;;24.13;18.63;;;;;;;;;;5136985;27;20441;-70
2021/06/12 03:24:06;;;;;;;23.10;18.23;;;;;;;;;;5136169;27;20586;-71
2021/06/12 03:26:33;;;;;;;22.70;17.83;;;;;;;;;;5135860;27;20438;-70
2021/06/12 03:29:00;;;;;;;24.00;17.50;;;;;;;;;;5136447;27;20794;-71
2021/06/12 03:31:29;;;;;;;19.70;17.47;;;;;;;;;;5135933;27;20468;-71
2021/06/12 03:33:56;;;;;;;26.07;17.53;;;;;;;;;;5135778;27;20470;-71
2021/06/12 03:36:24;;;;;;;22.87;16.90;;;;;;;;;;5135929;27;20447;-70
2021/06/12 03:38:51;;;;;;;25.53;18.33;;;;;;;;;;5135626;27;20508;-72
2021/06/12 03:41:19;;;;;;;20.50;16.20;;;;;;;;;;5135731;27;20438;-71
2021/06/12 03:43:46;;;;;;;26.83;17.87;;;;;;;;;;5135683;27;20434;-71
2021/06/12 03:46:14;;;;;;;23.30;17.60;;;;;;;;;;5135312;27;20438;-72
2021/06/12 03:48:44;;;;;;;26.20;17.00;;;;;;;;;;5135578;27;20445;-71
2021/06/12 03:51:12;;;;;;;21.80;16.57;;;;;;;;;;5135546;27;20437;-70
2021/06/12 03:53:44;;;;;;;24.40;17.07;;;;;;;;;;5135556;27;20794;-71
2021/06/12 03:56:12;;;;;;;19.67;15.50;;;;;;;;;;5135550;27;20430;-71
2021/06/12 03:58:39;;;;;;;24.27;16.70;;;;;;;;;;5135195;27;20529;-71
2021/06/12 04:01:06;;;;;;;23.53;17.00;;;;;;;;;;5135137;27;20447;-71
2021/06/12 04:03:32;;;;;;;24.37;18.10;;;;;;;;;;5135022;27;20444;-71
2021/06/12 04:06:00;;;;;;;25.07;16.83;;;;;;;;;;5134497;27;20920;-71
2021/06/12 04:08:28;;;;;;;19.43;14.90;;;;;;;;;;5135651;27;20452;-71
2021/06/12 04:10:54;;;;;;;20.77;15.97;;;;;;;;;;5135439;27;20557;-71
2021/06/12 04:13:21;;;;;;;21.57;14.90;;;;;;;;;;5135113;27;20483;-71
2021/06/12 04:15:48;;;;;;;19.83;14.80;;;;;;;;;;5134653;27;21005;-72
2021/06/12 04:18:15;;;;;;;19.20;15.43;;;;;;;;;;5135556;27;20438;-71
2021/06/12 04:20:42;;;;;;;21.10;15.93;;;;;;;;;;5134730;27;20438;-72
2021/06/12 04:23:10;;;;;;;21.30;16.17;;;;;;;;;;5134872;27;20449;-72
2021/06/12 04:25:37;;;;;;;20.00;14.73;;;;;;;;;;5134869;27;20454;-71
2021/06/12 04:28:04;;;;;;;23.70;16.53;;;;;;;;;;5134708;27;20480;-71
2021/06/12 04:30:31;;;;;;;21.50;15.07;;;;;;;;;;5134871;27;20445;-71
2021/06/12 04:32:58;;;;;;;19.40;14.20;;;;;;;;;;5134758;27;20453;-70
2021/06/12 04:35:24;;;;;;;17.43;15.37;;;;;;;;;;5134683;27;20478;-70
2021/06/12 04:37:53;;;;;;;19.63;15.37;;;;;;;;;;5134913;27;20437;-70
2021/06/12 04:40:21;;;;;;;20.20;15.47;;;;;;;;;;5135174;27;20985;-71
2021/06/12 04:42:48;;;;;;;21.17;15.50;;;;;;;;;;5134630;27;20434;-71
2021/06/12 04:45:14;;;;;;;21.73;16.40;;;;;;;;;;5134869;27;20439;-71
2021/06/12 04:47:41;;;;;;;20.70;15.17;;;;;;;;;;5134540;27;20554;-71
2021/06/12 04:50:10;;;;;;;18.87;14.80;;;;;;;;;;5134519;27;20450;-70
2021/06/12 04:52:37;;;;;;;20.03;15.10;;;;;;;;;;5132584;27;20947;-71
2021/06/12 04:55:04;;;;;;;22.47;14.47;;;;;;;;;;5121965;27;20475;-70
2021/06/12 04:57:32;;;;;;;19.60;14.43;;;;;;;;;;5113471;28;20429;-70
2021/06/12 04:59:58;;;;;;;19.30;14.33;;;;;;;;;;5113759;28;20441;-70
2021/06/12 05:02:25;;;;;;;18.60;14.70;;;;;;;;;;5113660;28;20440;-70
2021/06/12 05:04:52;;;;;;;17.07;14.70;;;;;;;;;;5113408;28;20443;-70
2021/06/12 05:07:19;;;;;;;19.70;14.20;;;;;;;;;;5113493;28;20441;-70
2021/06/12 05:09:45;;;;;;;16.20;12.90;;;;;;;;;;5113638;28;20542;-70
2021/06/12 05:12:12;;;;;;;22.80;14.63;;;;;;;;;;5113463;28;20445;-70
2021/06/12 05:14:43;;;;;;;19.33;14.07;;;;;;;;;;5113382;28;20471;-71
2021/06/12 05:17:12;;;;;;;15.77;13.00;;;;;;;;;;5113774;28;20487;-70
2021/06/12 05:19:39;;;;;;;16.73;13.27;;;;;;;;;;5117167;28;20451;-71
2021/06/12 05:22:06;;;;;;;23.83;12.87;;;;;;;;;;5118309;28;20444;-71
2021/06/12 05:24:35;;;;;;;15.80;13.13;;;;;;;;;;5117614;28;20445;-71
2021/06/12 05:27:01;;;;;;;19.03;12.90;;;;;;;;;;5117332;28;20470;-70
2021/06/12 05:29:28;;;;;;;14.90;12.73;;;;;;;;;;5117829;28;20522;-70
2021/06/12 05:31:56;;;;;;;19.20;13.53;;;;;;;;;;5117749;28;20794;-70
2021/06/12 05:34:23;;;;;;;17.83;12.30;;;;;;;;;;5117668;28;20639;-71
2021/06/12 05:36:50;;;;;;;17.23;11.53;;;;;;;;;;5118061;28;20521;-71
2021/06/12 05:39:16;;;;;;;17.80;12.30;;;;;;;;;;5117223;28;20935;-71
2021/06/12 05:41:43;;;;;;;16.87;11.93;;;;;;;;;;5117260;28;20444;-71
2021/06/12 05:44:10;;;;;;;14.83;12.00;;;;;;;;;;5117454;28;20452;-71
2021/06/12 05:46:36;;;;;;;13.73;12.33;;;;;;;;;;5117200;28;20465;-71
2021/06/12 05:49:04;;;;;;;16.60;11.30;;;;;;;;;;5117468;28;20441;-71
2021/06/12 05:51:31;;;;;;;14.20;12.33;;;;;;;;;;5117085;28;20431;-71
2021/06/12 05:53:58;;;;;;;12.93;10.90;;;;;;;;;;5117260;28;20478;-72
2021/06/12 05:56:24;;;;;;;15.83;11.93;;;;;;;;;;5117022;28;20442;-72
2021/06/12 05:58:51;;;;;;;12.20;9.97;;;;;;;;;;5116889;28;20935;-74
2021/06/12 06:01:18;;;;;;;22.13;12.93;;;;;;;;;;5117296;28;20443;-72
2021/06/12 06:03:45;;;;;;;17.60;12.43;;;;;;;;;;5117056;28;20438;-73
2021/06/12 06:06:13;;;;;;;12.60;11.03;;;;;;;;;;5117387;28;20439;-73
2021/06/12 06:08:39;;;;;;;15.93;11.67;;;;;;;;;;5117164;28;20543;-73
2021/06/12 06:11:06;;;;;;;14.13;11.17;;;;;;;;;;5116651;28;20442;-73
2021/06/12 06:13:37;;;;;;;14.70;11.47;;;;;;;;;;5132287;27;20843;-73
2021/06/12 06:16:03;;;;;;;14.13;11.50;;;;;;;;;;5137127;27;20537;-73
2021/06/12 06:18:30;;;;;;;16.10;11.50;;;;;;;;;;5137344;27;20478;-73
2021/06/12 06:20:57;;;;;;;12.57;10.33;;;;;;;;;;5138057;27;20439;-73
2021/06/12 06:23:25;;;;;;;13.47;11.37;;;;;;;;;;5125172;27;20534;-72
2021/06/12 06:25:52;;;;;;;15.50;11.87;;;;;;;;;;5116690;28;20438;-73
2021/06/12 06:28:19;;;;;;;15.67;12.47;;;;;;;;;;5116306;28;20828;-73
2021/06/12 06:30:46;;;;;;;14.20;12.17;;;;;;;;;;5116358;28;20444;-72
2021/06/12 06:33:13;;;;;;;17.90;12.50;;;;;;;;;;5116244;28;20439;-72
2021/06/12 06:35:40;;;;;;;14.97;12.00;;;;;;;;;;5116078;28;20474;-72
2021/06/12 06:38:07;;;;;;;16.63;12.93;;;;;;;;;;5116996;28;20446;-73
2021/06/12 06:40:35;;;;;;;16.67;11.77;;;;;;;;;;5116123;28;20476;-73
2021/06/12 06:43:02;;;;;;;15.80;12.83;;;;;;;;;;5116194;28;20474;-72
2021/06/12 06:45:29;;;;;;;18.97;13.10;;;;;;;;;;5116034;28;20442;-73
2021/06/12 06:47:56;;;;;;;16.10;12.03;;;;;;;;;;5116039;28;20434;-73
2021/06/12 06:50:22;;;;;;;16.27;14.27;;;;;;;;;;5116546;28;20470;-73
2021/06/12 06:52:49;;;;;;;16.43;14.17;;;;;;;;;;5115910;28;20444;-73
2021/06/12 06:55:16;;;;;;;19.03;14.20;;;;;;;;;;5115874;28;20467;-73
2021/06/12 06:57:45;;;;;;;14.93;13.00;;;;;;;;;;5116286;28;20440;-73
2021/06/12 07:00:12;;;;;;;15.67;13.97;;;;;;;;;;5116293;28;20485;-74
2021/06/12 07:02:39;;;;;;;26.20;15.63;;;;;;;;;;5115767;28;20824;-74
2021/06/12 07:05:06;;;;;;;17.80;14.90;;;;;;;;;;5115824;28;20503;-73
2021/06/12 07:07:33;;;;;;;17.43;14.40;;;;;;;;;;5115513;28;20436;-74
2021/06/12 07:10:00;;;;;;;19.40;15.43;;;;;;;;;;5115348;28;20458;-73
2021/06/12 07:12:27;;;;;;;21.03;15.30;;;;;;;;;;5115594;28;20445;-71
2021/06/12 07:14:55;;;;;;;21.97;16.30;;;;;;;;;;5115355;28;20479;-71
2021/06/12 07:17:22;;;;;;;21.87;14.97;;;;;;;;;;5115670;28;20443;-72
2021/06/12 07:19:48;;;;;;;19.30;14.37;;;;;;;;;;5115353;28;20439;-72
2021/06/12 07:22:15;;;;;;;20.90;15.03;;;;;;;;;;5115061;28;20992;-72
2021/06/12 07:24:42;;;;;;;21.57;15.33;;;;;;;;;;5115083;28;20535;-72
2021/06/12 07:27:09;;;;;;;16.00;14.40;;;;;;;;;;5114840;28;20474;-71
2021/06/12 07:29:36;;;;;;;16.80;14.10;;;;;;;;;;5115560;28;20435;-72
2021/06/12 07:32:04;;;;;;;20.10;16.20;;;;;;;;;;5114941;28;20439;-72
2021/06/12 07:34:31;;;;;;;18.97;15.63;;;;;;;;;;5114881;28;20470;-72
2021/06/12 07:36:58;;;;;;;15.30;13.63;;;;;;;;;;5114933;28;20937;-72
2021/06/12 07:39:26;;;;;;;19.30;15.50;;;;;;;;;;5115199;28;20478;-71
2021/06/12 07:41:53;;;;;;;17.13;14.17;;;;;;;;;;5114042;28;20446;-72
2021/06/12 07:44:20;;;;;;;19.80;16.17;;;;;;;;;;5114561;28;20445;-71
2021/06/12 07:46:47;;;;;;;20.30;15.90;;;;;;;;;;5115130;28;20442;-71
2021/06/12 07:49:15;;;;;;;17.67;15.50;;;;;;;;;;5114736;28;20969;-72
2021/06/12 07:51:43;;;;;;;21.10;17.23;;;;;;;;;;5114787;28;20444;-71
2021/06/12 07:54:10;;;;;;;21.03;16.97;;;;;;;;;;5114429;28;20443;-71
2021/06/12 07:56:36;;;;;;;21.00;15.50;;;;;;;;;;5114446;28;20471;-71
2021/06/12 07:59:03;;;;;;;19.73;15.97;;;;;;;;;;5114712;28;20804;-72
2021/06/12 08:01:30;;;;;;;20.47;17.27;;;;;;;;;;5114352;28;20454;-72
2021/06/12 08:03:57;;;;;;;24.57;17.13;;;;;;;;;;5114924;28;20837;-72
2021/06/12 08:06:25;;;;;;;19.27;17.10;;;;;;;;;;5114172;28;20463;-72
2021/06/12 08:08:52;;;;;;;18.67;15.93;;;;;;;;;;5115120;28;20458;-71
2021/06/12 08:11:19;;;;;;;18.87;16.33;;;;;;;;;;5114264;28;20449;-71
2021/06/12 08:13:46;;;;;;;19.07;17.03;;;;;;;;;;5113990;28;20440;-72
2021/06/12 08:16:13;;;;;;;20.37;16.20;;;;;;;;;;5114171;28;20975;-71
2021/06/12 08:18:39;;;;;;;18.77;15.17;;;;;;;;;;5114111;28;20439;-71
2021/06/12 08:21:06;;;;;;;19.80;16.37;;;;;;;;;;5113988;28;20976;-72
2021/06/12 08:23:34;;;;;;;17.57;15.73;;;;;;;;;;5114414;28;20442;-73
2021/06/12 08:26:01;;;;;;;20.30;15.40;;;;;;;;;;5114309;28;20541;-72
2021/06/12 08:28:28;;;;;;;18.43;14.33;;;;;;;;;;5114041;28;20475;-73
2021/06/12 08:30:55;;;;;;;17.83;15.93;;;;;;;;;;5115009;28;20488;-74
2021/06/12 08:33:22;;;;;;;16.33;14.60;;;;;;;;;;5114257;28;20443;-72
2021/06/12 08:35:48;;;;;;;14.53;12.97;;;;;;;;;;5114331;28;20470;-72
2021/06/12 08:38:15;;;;;;;17.73;14.50;;;;;;;;;;5114140;28;20443;-73
2021/06/12 08:40:43;;;;;;;19.67;14.43;;;;;;;;;;5114732;28;20454;-71
2021/06/12 08:43:10;;;;;;;14.90;13.03;;;;;;;;;;5114067;28;20434;-71
2021/06/12 08:45:37;;;;;;;21.20;15.97;;;;;;;;;;5119399;27;20451;-70
2021/06/12 08:48:04;;;;;;;13.77;12.37;;;;;;;;;;5131414;27;20549;-71
2021/06/12 08:50:31;;;;;;;16.67;13.93;;;;;;;;;;5133659;27;20853;-71
2021/06/12 08:52:58;;;;;;;14.80;13.30;;;;;;;;;;5133973;27;20438;-71
2021/06/12 08:55:26;;;;;;;16.10;14.40;;;;;;;;;;5134062;27;20467;-71
2021/06/12 08:57:54;;;;;;;14.30;12.80;;;;;;;;;;5134268;27;20447;-70
2021/06/12 09:00:21;;;;;;;12.50;11.30;;;;;;;;;;5133992;27;20464;-70
2021/06/12 09:03:07;;;;;;;11.80;10.10;;;;;;;;;;5134047;27;20503;-71
2021/06/12 09:05:55;;;;;;;15.20;11.70;;;;;;;;;;5133929;27;20533;-71
2021/06/12 09:08:22;;;;;;;15.70;13.20;;;;;;;;;;5127482;27;21013;-71
2021/06/12 09:10:51;;;;;;;13.23;11.17;;;;;;;;;;5134426;28;20963;-71
2021/06/12 09:13:25;;;;;;;12.73;10.90;;;;;;;;;;5134220;28;20456;-71
2021/06/12 09:15:57;;;;;;;10.83;9.80;;;;;;;;;;5115728;28;20468;-71
2021/06/12 09:18:37;;;;;;;12.87;11.70;;;;;;;;;;5113544;28;20451;-70
2021/06/12 09:21:04;;;;;;;13.97;10.90;;;;;;;;;;5113279;28;20503;-70
2021/06/12 09:23:38;;;;;;;11.27;9.83;;;;;;;;;;5113967;28;20451;-70
2021/06/12 09:26:06;;;;;;;11.57;9.80;;;;;;;;;;5114045;28;20768;-70
2021/06/12 09:28:45;;;;;;;12.63;9.87;;;;;;;;;;5113177;28;20471;-70
2021/06/12 09:31:17;;;;;;;10.50;9.53;;;;;;;;;;5113592;28;21062;-70
2021/06/12 09:33:44;;;;;;;11.93;10.27;;;;;;;;;;5113029;28;20537;-70
2021/06/12 09:36:11;;;;;;;11.80;10.67;;;;;;;;;;5112909;28;20481;-69
2021/06/12 09:38:38;;;;;;;12.03;10.83;;;;;;;;;;5113307;28;20450;-69
2021/06/12 09:41:20;;;;;;;11.63;9.83;;;;;;;;;;5113416;28;20480;-70
2021/06/12 09:43:47;;;;;;;12.63;11.20;;;;;;;;;;5113714;28;20437;-70
2021/06/12 09:46:28;;;;;;;11.30;8.93;;;;;;;;;;5113646;28;20467;-70
2021/06/12 09:48:57;;;;;;;10.23;9.23;;;;;;;;;;5113039;28;20432;-70
2021/06/12 09:51:23;;;;;;;9.47;8.57;;;;;;;;;;5113301;28;20439;-71
2021/06/12 09:53:51;;;;;;;8.50;6.50;;;;;;;;;;5113452;28;20445;-70
2021/06/12 09:56:18;;;;;;;6.43;5.90;;;;;;;;;;5112891;28;20545;-72
2021/06/12 09:58:45;;;;;;;8.03;6.67;;;;;;;;;;5113079;28;20520;-68
2021/06/12 10:01:13;;;;;;;9.80;5.80;;;;;;;;;;5112905;28;20440;-73
2021/06/12 10:03:40;;;;;;;7.13;5.20;;;;;;;;;;5113522;28;20444;-74
2021/06/12 10:06:13;;;;;;;7.43;4.53;;;;;;;;;;5116798;28;20445;-72
2021/06/12 10:08:40;;;;;;;7.37;4.67;;;;;;;;;;5116958;28;20449;-70
2021/06/12 10:11:08;;;;;;;8.37;5.30;;;;;;;;;;5116544;28;20446;-69
2021/06/12 10:13:34;;;;;;;7.27;5.10;;;;;;;;;;5116601;28;20495;-71
2021/06/12 10:16:02;;;;;;;8.73;4.70;;;;;;;;;;5116901;27;20556;-70
2021/06/12 10:18:30;;;;;;;7.30;5.10;;;;;;;;;;5127555;27;20447;-70
2021/06/12 10:20:57;;;;;;;6.73;5.13;;;;;;;;;;5136619;27;20492;-70
2021/06/12 10:23:25;;;;;;;6.50;4.70;;;;;;;;;;5136503;27;20439;-70
2021/06/12 10:25:53;;;;;;;5.87;4.60;;;;;;;;;;5136860;27;20445;-70
2021/06/12 10:28:21;;;;;;;7.60;5.10;;;;;;;;;;5120604;27;20476;-70
2021/06/12 10:30:48;;;;;;;4.37;4.00;;;;;;;;;;5116158;28;20960;-70
2021/06/12 10:33:21;;;;;;;5.53;4.87;;;;;;;;;;5116142;28;20490;-69
2021/06/12 10:35:47;;;;;;;6.60;5.97;;;;;;;;;;5116462;28;20471;-70
2021/06/12 10:38:15;;;;;;;7.60;5.63;;;;;;;;;;5116310;28;20452;-69
2021/06/12 10:40:45;;;;;;;6.10;4.53;;;;;;;;;;5115980;28;20441;-70
2021/06/12 10:43:14;;;;;;;5.67;5.10;;;;;;;;;;5116696;28;20444;-70
2021/06/12 10:45:41;;;;;;;5.70;5.20;;;;;;;;;;5113851;28;20447;-70
2021/06/12 10:48:08;;;;;;;6.17;5.23;;;;;;;;;;5096163;28;20442;-69
2021/06/12 10:50:38;;;;;;;5.57;4.83;;;;;;;;;;5096257;28;20494;-70
2021/06/12 10:53:18;;;;;;;8.70;5.37;;;;;;;;;;5096477;28;20437;-69
2021/06/12 10:55:47;;;;;;;6.53;5.13;;;;;;;;;;5095554;28;20471;-70
2021/06/12 10:58:32;;;;;;;6.50;5.90;;;;;;;;;;5095490;28;20523;-70
2021/06/12 11:01:13;;;;;;;6.30;4.87;;;;;;;;;;5095007;28;20441;-70
2021/06/12 11:03:51;;;;;;;5.63;5.00;;;;;;;;;;5095183;28;20449;-70
2021/06/12 11:06:37;;;;;;;7.50;3.90;;;;;;;;;;5095139;28;20490;-70
2021/06/12 11:09:23;;;;;;;4.27;3.90;;;;;;;;;;5095574;28;20954;-70
2021/06/12 11:11:52;;;;;;;9.83;4.93;;;;;;;;;;5095643;28;20436;-70
2021/06/12 11:14:28;;;;;;;5.47;4.23;;;;;;;;;;5095248;28;20478;-69
2021/06/12 11:17:13;;;;;;;10.80;3.90;;;;;;;;;;5093704;28;20801;-71
2021/06/12 11:19:42;;;;;;;5.37;4.27;;;;;;;;;;5094717;28;20444;-69
2021/06/12 11:22:28;;;;;;;10.27;3.90;;;;;;;;;;5094744;28;20438;-69
2021/06/12 11:24:57;;;;;;;3.90;3.00;;;;;;;;;;5094693;28;20503;-69
2021/06/12 11:27:29;;;;;;;7.27;3.77;;;;;;;;;;5103490;28;20481;-69
2021/06/12 11:30:13;;;;;;;5.63;3.33;;;;;;;;;;5115047;28;20457;-68
2021/06/12 11:32:40;;;;;;;8.20;3.90;;;;;;;;;;5115352;28;20452;-68
2021/06/12 11:35:07;;;;;;;7.40;4.30;;;;;;;;;;5115452;28;20574;-69
2021/06/12 11:37:34;;;;;;;4.43;3.60;;;;;;;;;;5115721;28;20444;-69
2021/06/12 11:40:02;;;;;;;6.13;3.80;;;;;;;;;;5115539;28;20865;-69
2021/06/12 11:42:44;;;;;;;6.53;3.97;;;;;;;;;;5115292;28;20467;-70
2021/06/12 11:45:18;;;;;;;5.00;3.80;;;;;;;;;;5114710;28;20452;-69
2021/06/12 11:47:45;;;;;;;5.97;3.47;;;;;;;;;;5114965;28;20440;-70
2021/06/12 11:50:12;;;;;;;5.00;3.70;;;;;;;;;;5114664;28;20935;-69
2021/06/12 11:52:39;;;;;;;6.37;4.23;;;;;;;;;;5115233;28;20532;-69
2021/06/12 11:55:13;;;;;;;4.93;3.20;;;;;;;;;;5115240;28;20507;-69
2021/06/12 11:57:40;;;;;;;6.60;3.30;;;;;;;;;;5114941;28;20433;-69
2021/06/12 12:00:25;;;;;;;3.43;3.10;;;;;;;;;;5115020;28;20444;-69
2021/06/12 12:02:57;;;;;;;5.97;3.13;;;;;;;;;;5114474;28;20889;-69
2021/06/12 12:05:24;;;;;;;6.50;2.93;;;;;;;;;;5115006;28;20432;-69
2021/06/12 12:07:51;;;;;;;3.60;2.60;;;;;;;;;;5114602;28;20455;-70
2021/06/12 12:10:24;;;;;;;4.20;2.87;;;;;;;;;;5114916;28;20444;-69
2021/06/12 12:12:51;;;;;;;2.97;2.73;;;;;;;;;;5114788;28;20516;-70
2021/06/12 12:15:33;;;;;;;6.73;3.60;;;;;;;;;;5114596;28;20477;-69
2021/06/12 12:18:03;;;;;;;5.93;3.60;;;;;;;;;;5114299;28;20969;-70
2021/06/12 12:20:34;;;;;;;6.77;3.43;;;;;;;;;;5114838;28;20434;-70
2021/06/12 12:23:01;;;;;;;4.13;3.23;;;;;;;;;;5114454;28;20443;-69
2021/06/12 12:25:29;;;;;;;4.00;3.60;;;;;;;;;;5114624;28;20774;-70
2021/06/12 12:28:04;;;;;;;6.23;3.00;;;;;;;;;;5113782;28;20870;-70
2021/06/12 12:30:30;;;;;;;3.60;2.80;;;;;;;;;;5114024;28;20526;-68
2021/06/12 12:33:07;;;;;;;4.60;3.10;;;;;;;;;;5114253;28;20436;-69
2021/06/12 12:35:34;;;;;;;3.70;3.30;;;;;;;;;;5122677;27;20470;-69
2021/06/12 12:38:14;;;;;;;3.50;3.03;;;;;;;;;;5114802;27;20533;-69
2021/06/12 12:40:40;;;;;;;4.63;3.50;;;;;;;;;;5114159;28;20514;-69
2021/06/12 12:43:07;;;;;;;4.87;2.87;;;;;;;;;;5114137;28;20478;-70
2021/06/12 12:45:35;;;;;;;4.67;3.37;;;;;;;;;;5113753;28;20441;-69
2021/06/12 12:48:02;;;;;;;5.13;2.83;;;;;;;;;;5114107;28;20800;-69
2021/06/12 12:50:31;;;;;;;5.33;3.70;;;;;;;;;;5113966;28;20432;-69
2021/06/12 12:53:04;;;;;;;5.00;3.10;;;;;;;;;;5114264;28;21001;-69
2021/06/12 12:55:31;;;;;;;5.83;2.90;;;;;;;;;;5113824;28;20477;-69
2021/06/12 12:57:58;;;;;;;4.00;2.73;;;;;;;;;;5114284;28;20443;-69
2021/06/12 13:00:27;;;;;;;3.60;2.83;;;;;;;;;;5114008;28;20445;-69
2021/06/12 13:02:55;;;;;;;4.10;2.93;;;;;;;;;;5114325;28;20512;-69
2021/06/12 13:05:22;;;;;;;2.50;2.30;;;;;;;;;;5113980;28;20538;-69
2021/06/12 13:08:00;;;;;;;5.40;2.90;;;;;;;;;;5113470;28;20945;-69
2021/06/12 13:10:31;;;;;;;5.50;2.77;;;;;;;;;;5113510;28;20995;-68
2021/06/12 13:12:58;;;;;;;4.50;2.63;;;;;;;;;;5113778;28;20439;-68
2021/06/12 13:15:25;;;;;;;5.67;3.17;;;;;;;;;;5113683;28;20523;-68
2021/06/12 13:17:52;;;;;;;3.60;3.13;;;;;;;;;;5113753;28;20434;-70
2021/06/12 13:20:22;;;;;;;4.20;3.50;;;;;;;;;;5113774;28;20843;-71
2021/06/12 13:22:49;;;;;;;5.13;2.63;;;;;;;;;;5113712;28;20446;-68
2021/06/12 13:25:18;;;;;;;5.87;3.40;;;;;;;;;;5113648;28;20445;-69
2021/06/12 13:27:47;;;;;;;5.00;2.73;;;;;;;;;;5113549;28;21024;-69
2021/06/12 13:30:38;;;;;;;3.60;2.43;;;;;;;;;;5113263;28;20465;-69
2021/06/12 13:33:09;;;;;;;4.80;2.77;;;;;;;;;;5093454;28;20471;-69
2021/06/12 13:35:40;;;;;;;8.50;2.93;;;;;;;;;;5113559;28;20562;-69
2021/06/12 13:38:08;;;;;;;4.23;2.73;;;;;;;;;;5113878;28;20515;-69
2021/06/12 13:40:37;;;;;;;3.53;2.70;;;;;;;;;;5116039;28;20957;-69
2021/06/12 13:43:13;;;;;;;3.00;2.70;;;;;;;;;;5117295;28;20446;-69
2021/06/12 13:45:40;;;;;;;4.10;2.60;;;;;;;;;;5117012;28;20478;-69
2021/06/12 13:48:07;;;;;;;4.70;2.40;;;;;;;;;;5116754;28;20521;-69
2021/06/12 13:50:34;;;;;;;3.50;2.10;;;;;;;;;;5117086;28;20442;-70
2021/06/12 13:53:00;;;;;;;7.63;3.07;;;;;;;;;;5117290;28;20449;-69
2021/06/12 13:55:27;;;;;;;7.10;2.30;;;;;;;;;;5116762;28;20844;-70
2021/06/12 13:57:57;;;;;;;3.53;2.40;;;;;;;;;;5116868;28;20446;-70
2021/06/12 14:00:24;;;;;;;7.83;2.80;;;;;;;;;;5116958;28;20437;-69
2021/06/12 14:02:51;;;;;;;5.80;2.83;;;;;;;;;;5116390;28;20439;-69
2021/06/12 14:05:18;;;;;;;5.20;2.27;;;;;;;;;;5116877;28;20454;-70
2021/06/12 14:07:44;;;;;;;4.80;2.10;;;;;;;;;;5117025;28;20441;-69
2021/06/12 14:10:12;;;;;;;4.83;2.57;;;;;;;;;;5116217;28;20452;-70
2021/06/12 14:12:39;;;;;;;2.50;2.23;;;;;;;;;;5116670;28;20441;-69
2021/06/12 14:15:08;;;;;;;5.03;2.63;;;;;;;;;;5116791;28;20474;-69
2021/06/12 14:17:36;;;;;;;4.97;2.60;;;;;;;;;;5116465;28;20938;-69
2021/06/12 14:20:04;;;;;;;7.80;3.47;;;;;;;;;;5116418;28;20449;-69
2021/06/12 14:22:31;;;;;;;6.10;2.77;;;;;;;;;;5116972;28;20970;-69
2021/06/12 14:24:57;;;;;;;3.23;2.93;;;;;;;;;;5116817;28;20506;-69
2021/06/12 14:27:24;;;;;;;2.60;2.30;;;;;;;;;;5116616;28;20496;-69
2021/06/12 14:29:51;;;;;;;3.63;2.50;;;;;;;;;;5116205;28;20537;-70
2021/06/12 14:32:19;;;;;;;6.03;3.20;;;;;;;;;;5116264;28;20450;-69
2021/06/12 14:34:46;;;;;;;3.67;2.60;;;;;;;;;;5115846;28;21006;-69